Time;durP1;ratioP1;P1;durP2;ratioP2;P2;SDS_P1;SDS_P2;PMS_P1;PMS_P2;Temp;Humidity;BMP_temperature;BMP_pressure;BME280_temperature;BME280_humidity;BME280_pressure;Samples;Min_cycle;Max_cycle;Signal;HPM_P1;HPM_P2
2023/11/11 00:01:19;;;;;;;1.30;1.20;;;;;;;8.71;93.81;98281.84;5023085;28;20045;-72
2023/11/11 00:03:47;;;;;;;0.85;0.85;;;;;;;8.70;93.53;98287.84;5057275;28;20032;-72
2023/11/11 00:06:17;;;;;;;1.95;1.67;;;;;;;8.71;94.17;98285.25;5056758;28;20043;-71
2023/11/11 00:08:46;;;;;;;1.48;1.38;;;;;;;8.79;93.53;98280.03;5056186;28;20132;-72
2023/11/11 00:11:16;;;;;;;1.70;1.60;;;;;;;8.83;93.98;98274.03;5056367;28;20041;-71
2023/11/11 00:13:45;;;;;;;1.30;1.20;;;;;;;8.77;93.73;98274.16;5056313;28;20049;-70
2023/11/11 00:16:14;;;;;;;1.10;1.00;;;;;;;8.72;94.17;98278.47;5056254;28;20045;-70
2023/11/11 00:18:43;;;;;;;0.97;0.93;;;;;;;8.68;94.20;98274.31;5056550;28;20041;-71
2023/11/11 00:21:12;;;;;;;1.05;1.05;;;;;;;8.70;93.87;98272.56;5056469;28;20124;-71
2023/11/11 00:23:40;;;;;;;0.63;0.50;;;;;;;8.71;93.60;98279.31;5056410;28;20487;-70
2023/11/11 00:26:09;;;;;;;1.38;1.23;;;;;;;8.71;93.70;98285.25;5056360;28;20037;-70
2023/11/11 00:28:41;;;;;;;1.02;0.93;;;;;;;8.76;94.31;98282.63;5056163;28;20380;-72
2023/11/11 00:31:10;;;;;;;3.03;2.38;;;;;;;8.77;94.15;98276.69;5056320;28;20049;-72
2023/11/11 00:33:42;;;;;;;2.65;1.92;;;;;;;8.76;94.28;98287.72;5056303;28;20083;-70
2023/11/11 00:36:12;;;;;;;1.85;1.15;;;;;;;8.73;93.82;98282.69;5054921;28;20063;-71
2023/11/11 00:38:42;;;;;;;1.23;1.13;;;;;;;8.81;93.92;98296.13;5055855;28;20045;-72
2023/11/11 00:41:11;;;;;;;1.77;1.67;;;;;;;8.82;94.26;98296.97;5054706;28;20045;-70
2023/11/11 00:43:41;;;;;;;1.40;1.30;;;;;;;8.85;93.65;98297.78;5056356;28;20542;-72
2023/11/11 00:46:10;;;;;;;0.93;0.93;;;;;;;8.72;93.84;98288.63;5055726;28;20760;-72
2023/11/11 00:48:41;;;;;;;1.40;0.80;;;;;;;8.75;93.66;98291.16;5055740;28;20045;-72
2023/11/11 00:51:10;;;;;;;0.47;0.47;;;;;;;8.72;94.13;98276.78;5055700;28;20140;-71
2023/11/11 00:53:38;;;;;;;1.33;1.23;;;;;;;8.82;94.13;98292.72;5055579;28;20132;-71
2023/11/11 00:56:08;;;;;;;0.82;0.82;;;;;;;8.77;93.15;98289.41;5054339;28;20072;-70
2023/11/11 00:58:37;;;;;;;2.03;1.87;;;;;;;8.68;93.19;98287.03;5055789;28;20064;-71
2023/11/11 01:01:09;;;;;;;1.33;1.23;;;;;;;8.62;93.88;98282.00;5055025;28;20053;-71
2023/11/11 01:03:38;;;;;;;5.38;2.10;;;;;;;8.62;93.49;98279.47;5055692;28;20037;-70
2023/11/11 01:06:08;;;;;;;0.93;0.93;;;;;;;8.70;94.22;98282.75;5054112;28;20069;-70
2023/11/11 01:08:37;;;;;;;1.33;1.23;;;;;;;8.71;93.94;98279.31;5055443;28;20059;-72
2023/11/11 01:11:06;;;;;;;4.72;1.58;;;;;;;8.75;93.96;98279.28;5055467;28;20041;-71
2023/11/11 01:13:35;;;;;;;1.23;1.13;;;;;;;8.65;93.53;98249.75;5054057;28;20503;-72
2023/11/11 01:16:04;;;;;;;0.43;0.43;;;;;;;8.68;94.08;98264.13;5054063;28;20048;-70
2023/11/11 01:18:35;;;;;;;1.33;1.25;;;;;;;8.79;94.39;98272.41;5053900;28;20088;-70
2023/11/11 01:21:04;;;;;;;0.90;0.88;;;;;;;8.46;93.95;98220.41;5054184;28;20041;-72
2023/11/11 01:23:33;;;;;;;2.40;0.93;;;;;;;8.78;94.48;98275.84;5053825;28;20082;-72
2023/11/11 01:26:02;;;;;;;1.03;0.93;;;;;;;8.75;94.26;98271.63;5054910;28;20033;-70
2023/11/11 01:28:31;;;;;;;1.27;1.08;;;;;;;8.79;94.06;98262.25;5053492;28;20135;-72
2023/11/11 01:31:00;;;;;;;1.40;1.20;;;;;;;8.80;93.67;98253.75;5054873;28;20060;-71
2023/11/11 01:33:29;;;;;;;1.13;1.07;;;;;;;8.80;94.12;98246.13;5053889;28;20036;-71
2023/11/11 01:36:01;;;;;;;1.80;1.10;;;;;;;8.81;94.19;98245.25;5053788;28;20064;-71
2023/11/11 01:38:30;;;;;;;1.60;1.30;;;;;;;8.77;94.02;98248.72;5054901;28;20045;-71
2023/11/11 01:40:59;;;;;;;1.98;0.93;;;;;;;8.74;94.27;98233.50;5053612;28;20033;-70
2023/11/11 01:43:27;;;;;;;1.47;1.37;;;;;;;8.76;93.93;98229.22;5054992;28;20061;-72
2023/11/11 01:45:58;;;;;;;1.90;1.80;;;;;;;8.74;94.28;98234.34;5053427;28;20041;-70
2023/11/11 01:48:30;;;;;;;0.95;0.90;;;;;;;8.68;94.03;98228.53;5053426;28;20557;-72
2023/11/11 01:51:01;;;;;;;0.95;0.88;;;;;;;8.68;93.94;98238.69;5054282;28;20052;-71
2023/11/11 01:53:31;;;;;;;1.30;1.20;;;;;;;8.69;93.69;98241.22;5054993;28;20049;-70
2023/11/11 01:56:00;;;;;;;1.98;1.80;;;;;;;8.63;93.63;98225.22;5053524;28;20045;-71
2023/11/11 01:58:30;;;;;;;1.83;1.45;;;;;;;8.62;93.67;98223.53;5054274;28;20053;-70
2023/11/11 02:00:59;;;;;;;2.10;1.33;;;;;;;8.58;93.68;98222.75;5053428;28;20487;-71
2023/11/11 02:03:28;;;;;;;4.78;0.95;;;;;;;8.59;94.03;98218.50;5053081;28;20399;-70
2023/11/11 02:05:57;;;;;;;1.88;1.75;;;;;;;8.26;94.44;98163.06;5054163;28;20048;-71
2023/11/11 02:08:31;;;;;;;1.55;1.40;;;;;;;8.61;93.73;98221.88;5054013;28;20049;-71
2023/11/11 02:11:00;;;;;;;0.77;0.77;;;;;;;8.54;93.97;98184.69;5053340;28;20525;-71
2023/11/11 02:13:34;;;;;;;;;;;;;;;8.68;94.01;98213.28;5053521;28;20045;-72
2023/11/11 02:16:04;;;;;;;2.65;0.82;;;;;;;8.66;94.16;98203.09;5053110;28;19960;-70
2023/11/11 02:18:33;;;;;;;1.33;1.23;;;;;;;8.67;93.94;98196.31;5054275;28;20049;-71
2023/11/11 02:21:02;;;;;;;1.13;1.05;;;;;;;8.46;94.06;98154.31;5052915;28;20514;-71
2023/11/11 02:23:35;;;;;;;4.78;2.20;;;;;;;8.66;94.11;98194.66;5053789;28;20064;-72
2023/11/11 02:26:05;;;;;;;1.90;1.60;;;;;;;8.66;94.11;98187.03;5054211;28;20048;-71
2023/11/11 02:28:33;;;;;;;1.40;1.15;;;;;;;8.59;94.79;98181.19;5053963;28;20111;-71
2023/11/11 02:31:02;;;;;;;0.47;0.47;;;;;;;8.61;94.71;98181.19;5052584;28;20120;-72
2023/11/11 02:33:31;;;;;;;1.25;1.15;;;;;;;8.67;94.18;98187.00;5053032;28;20039;-72
2023/11/11 02:36:00;;;;;;;0.60;0.60;;;;;;;8.42;94.82;98139.16;5053750;28;20121;-70
2023/11/11 02:38:29;;;;;;;1.13;1.02;;;;;;;8.73;94.55;98186.06;5053689;28;20084;-70
2023/11/11 02:40:59;;;;;;;1.00;1.00;;;;;;;8.74;94.21;98178.38;5053491;28;20099;-71
2023/11/11 02:43:28;;;;;;;1.08;0.98;;;;;;;8.75;94.61;98190.25;5053581;28;20037;-73
2023/11/11 02:45:57;;;;;;;0.98;0.80;;;;;;;8.74;94.57;98192.81;5052633;28;20052;-70
2023/11/11 02:48:26;;;;;;;1.67;1.45;;;;;;;8.73;94.55;98193.69;5052647;28;20041;-72
2023/11/11 02:50:54;;;;;;;0.52;0.52;;;;;;;8.70;94.71;98193.72;5052018;28;20033;-70
2023/11/11 02:53:24;;;;;;;1.63;1.52;;;;;;;8.73;94.27;98191.97;5052640;28;20053;-72
2023/11/11 02:55:53;;;;;;;1.23;1.10;;;;;;;8.70;94.99;98181.00;5053482;28;20045;-71
2023/11/11 02:58:23;;;;;;;2.63;2.08;;;;;;;8.74;94.26;98182.63;5053358;28;20087;-71
2023/11/11 03:00:53;;;;;;;1.27;1.17;;;;;;;8.74;94.70;98187.72;5053856;28;20041;-71
2023/11/11 03:03:22;;;;;;;1.27;1.13;;;;;;;8.71;94.91;98188.59;5052205;28;20076;-71
2023/11/11 03:05:51;;;;;;;1.83;1.60;;;;;;;8.69;94.87;98184.41;5053908;28;20403;-71
2023/11/11 03:08:21;;;;;;;;;;;;;;;8.66;94.88;98180.22;5052430;28;20056;-72
2023/11/11 03:10:50;;;;;;;1.55;1.45;;;;;;;8.60;94.30;98161.69;5052075;28;19927;-72
2023/11/11 03:13:19;;;;;;;1.10;1.07;;;;;;;8.39;95.16;98123.94;5052055;28;20048;-72
2023/11/11 03:15:49;;;;;;;2.13;2.00;;;;;;;8.72;94.46;98179.28;5053239;28;20359;-71
2023/11/11 03:18:18;;;;;;;1.23;1.13;;;;;;;8.71;94.74;98164.88;5053491;28;20442;-72
2023/11/11 03:20:46;;;;;;;0.60;0.60;;;;;;;8.60;95.02;98146.44;5053498;28;20041;-72
2023/11/11 03:23:15;;;;;;;1.33;1.23;;;;;;;8.67;95.16;98165.81;5055431;28;20056;-70
2023/11/11 03:25:44;;;;;;;1.40;1.30;;;;;;;8.71;94.95;98157.25;5057249;28;20045;-72
2023/11/11 03:28:13;;;;;;;1.23;1.13;;;;;;;8.73;94.65;98153.00;5057370;28;20123;-71
2023/11/11 03:30:42;;;;;;;2.27;1.67;;;;;;;8.71;94.89;98157.25;5057134;28;20124;-70
2023/11/11 03:33:12;;;;;;;1.58;1.48;;;;;;;8.69;94.86;98164.06;5055920;28;20041;-70
2023/11/11 03:35:41;;;;;;;1.73;1.33;;;;;;;8.65;94.69;98157.38;5056495;28;20057;-70
2023/11/11 03:38:10;;;;;;;1.30;1.13;;;;;;;8.57;94.82;98162.59;5057001;28;20048;-70
2023/11/11 03:40:38;;;;;;;2.90;1.85;;;;;;;8.59;94.38;98162.56;5056938;28;20278;-72
2023/11/11 03:43:07;;;;;;;1.15;1.13;;;;;;;8.59;94.60;98162.56;5056836;28;20494;-71
2023/11/11 03:45:36;;;;;;;0.70;0.70;;;;;;;8.55;94.90;98169.41;5056028;28;20033;-70
2023/11/11 03:48:05;;;;;;;3.00;1.23;;;;;;;8.57;94.90;98159.19;5057090;28;20365;-72
2023/11/11 03:50:36;;;;;;;1.33;1.17;;;;;;;8.53;94.42;98152.50;5056665;28;20051;-71
2023/11/11 03:53:04;;;;;;;1.73;1.63;;;;;;;8.40;94.92;98148.47;5055296;28;20430;-71
2023/11/11 03:55:33;;;;;;;1.37;1.27;;;;;;;8.48;94.56;98154.28;5056694;28;20052;-71
2023/11/11 03:58:02;;;;;;;1.40;1.30;;;;;;;8.47;94.64;98152.63;5056625;28;20037;-71
2023/11/11 04:00:31;;;;;;;2.30;2.03;;;;;;;8.48;94.35;98149.19;5056581;28;20045;-70
2023/11/11 04:03:00;;;;;;;2.33;1.40;;;;;;;8.50;94.53;98148.31;5056857;28;20475;-72
2023/11/11 04:05:30;;;;;;;1.60;1.13;;;;;;;8.51;94.97;98139.81;5056567;28;20494;-72
2023/11/11 04:08:00;;;;;;;1.77;1.67;;;;;;;8.47;94.66;98137.38;5056394;28;20060;-70
2023/11/11 04:10:30;;;;;;;1.38;0.88;;;;;;;8.46;95.05;98151.78;5055378;28;20047;-71
2023/11/11 04:12:59;;;;;;;;;;;;;;;8.49;94.45;98144.09;5055431;28;20044;-71
2023/11/11 04:15:28;;;;;;;4.30;2.75;;;;;;;8.51;94.74;98141.53;5055051;28;19971;-71
2023/11/11 04:17:57;;;;;;;0.93;0.87;;;;;;;8.62;94.85;98147.25;5056599;28;20061;-73
2023/11/11 04:20:26;;;;;;;1.05;0.93;;;;;;;8.65;94.55;98137.03;5054220;28;20060;-71
2023/11/11 04:22:55;;;;;;;1.67;1.52;;;;;;;8.61;94.45;98120.16;5036246;28;20046;-72
2023/11/11 04:25:25;;;;;;;2.33;2.13;;;;;;;8.69;95.02;98138.63;5035190;28;20515;-72
2023/11/11 04:27:54;;;;;;;0.75;0.75;;;;;;;8.70;94.66;98135.25;5036273;28;20057;-72
2023/11/11 04:30:23;;;;;;;2.33;1.40;;;;;;;8.65;94.84;98132.78;5035922;28;20045;-71
2023/11/11 04:32:51;;;;;;;5.63;3.28;;;;;;;8.57;94.69;98121.06;5035966;28;20038;-71
2023/11/11 04:35:20;;;;;;;3.07;2.40;;;;;;;8.65;94.47;98148.03;5035327;28;20073;-71
2023/11/11 04:37:50;;;;;;;1.92;1.77;;;;;;;8.67;94.63;98140.38;5036521;28;20045;-70
2023/11/11 04:40:18;;;;;;;2.92;2.20;;;;;;;8.61;93.98;98140.50;5035927;28;20052;-70
2023/11/11 04:42:48;;;;;;;4.03;2.60;;;;;;;8.64;94.25;98153.97;5035809;28;20056;-72
2023/11/11 04:45:17;;;;;;;1.20;1.10;;;;;;;8.62;94.40;98158.25;5034944;28;20053;-72
2023/11/11 04:47:46;;;;;;;1.67;1.57;;;;;;;8.31;94.02;98105.44;5036394;28;20045;-70
2023/11/11 04:50:16;;;;;;;1.20;1.13;;;;;;;8.63;94.42;98154.03;5035860;28;20037;-70
2023/11/11 04:52:46;;;;;;;2.05;1.85;;;;;;;8.68;94.04;98159.88;5035642;28;20077;-72
2023/11/11 04:55:15;;;;;;;2.85;1.85;;;;;;;8.68;94.02;98167.50;5035635;28;20050;-72
2023/11/11 04:57:44;;;;;;;3.55;3.13;;;;;;;8.66;94.11;98154.78;5035873;28;20444;-71
2023/11/11 05:00:17;;;;;;;6.13;2.97;;;;;;;8.65;93.77;98172.63;5035796;28;20144;-72
2023/11/11 05:02:45;;;;;;;4.38;2.15;;;;;;;8.65;94.76;98167.53;5035584;28;20282;-71
2023/11/11 05:05:14;;;;;;;1.83;1.47;;;;;;;8.58;94.69;98159.19;5035343;28;20041;-72
2023/11/11 05:07:44;;;;;;;2.03;1.90;;;;;;;8.67;94.38;98173.44;5035587;28;20138;-72
2023/11/11 05:10:13;;;;;;;2.08;1.88;;;;;;;8.62;94.21;98167.59;5035184;28;20053;-71
2023/11/11 05:12:41;;;;;;;0.80;0.77;;;;;;;8.55;94.44;98158.38;5035373;28;20499;-70
2023/11/11 05:15:15;;;;;;;0.75;0.75;;;;;;;8.65;94.87;98168.38;5035207;28;20128;-71
2023/11/11 05:17:46;;;;;;;3.28;2.15;;;;;;;8.69;94.53;98164.06;5035258;28;20073;-71
2023/11/11 05:20:17;;;;;;;2.47;1.88;;;;;;;8.71;94.20;98163.19;5035170;28;20060;-72
2023/11/11 05:22:45;;;;;;;3.03;2.50;;;;;;;8.56;94.81;98138.03;5035336;28;20041;-71
2023/11/11 05:25:15;;;;;;;3.70;2.35;;;;;;;8.76;94.63;98155.47;5035363;28;20438;-71
2023/11/11 05:27:45;;;;;;;2.85;2.00;;;;;;;8.66;94.85;98143.81;5035192;28;20499;-71
2023/11/11 05:30:15;;;;;;;0.70;0.70;;;;;;;8.77;94.47;98154.59;5034917;28;20045;-72
2023/11/11 05:32:46;;;;;;;1.35;1.25;;;;;;;8.73;94.33;98151.25;5034098;28;20041;-71
2023/11/11 05:35:15;;;;;;;4.72;3.47;;;;;;;8.71;94.79;98153.00;5034930;28;20056;-71
2023/11/11 05:37:43;;;;;;;2.83;1.75;;;;;;;8.71;94.88;98157.25;5034775;28;20076;-70
2023/11/11 05:40:17;;;;;;;1.57;1.47;;;;;;;8.68;94.33;98162.41;5034771;28;20038;-72
2023/11/11 05:42:48;;;;;;;2.03;1.58;;;;;;;8.65;94.17;98158.22;5035126;28;20045;-72
2023/11/11 05:45:18;;;;;;;2.22;1.55;;;;;;;8.65;94.33;98158.22;5034672;28;20068;-71
2023/11/11 05:47:48;;;;;;;1.48;1.38;;;;;;;8.51;94.47;98138.97;5034623;28;20045;-71
2023/11/11 05:50:17;;;;;;;2.28;1.60;;;;;;;8.66;94.16;98174.31;5034590;28;20107;-71
2023/11/11 05:52:46;;;;;;;3.97;2.90;;;;;;;8.67;94.45;98170.88;5034265;28;20491;-72
2023/11/11 05:55:14;;;;;;;1.50;1.40;;;;;;;8.64;94.99;98160.75;5033375;28;20043;-70
2023/11/11 05:57:43;;;;;;;1.50;1.37;;;;;;;8.66;94.28;98159.06;5034734;28;20067;-70
2023/11/11 06:00:14;;;;;;;1.42;1.08;;;;;;;8.60;94.89;98154.06;5034379;28;20048;-72
2023/11/11 06:02:43;;;;;;;0.65;0.65;;;;;;;8.67;94.29;98155.63;5034396;28;20051;-71
2023/11/11 06:05:13;;;;;;;1.93;0.77;;;;;;;8.67;95.28;98158.19;5034867;28;20055;-72
2023/11/11 06:07:42;;;;;;;2.60;1.08;;;;;;;8.54;94.40;98141.47;5034466;28;20092;-70
2023/11/11 06:10:12;;;;;;;0.50;0.50;;;;;;;8.69;95.03;98161.53;5034136;28;20495;-70
2023/11/11 06:12:41;;;;;;;;;;;;;;;8.70;94.42;98161.53;5034415;28;20092;-72
2023/11/11 06:15:10;;;;;;;0.88;0.77;;;;;;;8.63;94.38;98159.09;5034283;28;19921;-73
2023/11/11 06:17:38;;;;;;;1.58;1.40;;;;;;;8.62;94.64;98157.41;5034052;28;20037;-71
2023/11/11 06:20:09;;;;;;;1.23;1.00;;;;;;;8.59;94.15;98158.31;5034345;28;20037;-72
2023/11/11 06:22:39;;;;;;;0.93;0.93;;;;;;;8.63;95.13;98154.03;5034041;28;20052;-71
2023/11/11 06:25:09;;;;;;;1.05;1.05;;;;;;;8.64;94.19;98150.59;5034417;28;20049;-70
2023/11/11 06:27:37;;;;;;;0.90;0.90;;;;;;;8.64;95.07;98151.44;5033956;28;20051;-70
2023/11/11 06:30:08;;;;;;;2.20;1.52;;;;;;;8.65;94.91;98152.28;5033725;28;20042;-73
2023/11/11 06:32:37;;;;;;;0.93;0.93;;;;;;;8.52;94.74;98130.47;5033747;28;20045;-71
2023/11/11 06:35:08;;;;;;;1.30;1.20;;;;;;;8.60;94.66;98138.81;5033823;28;20041;-70
2023/11/11 06:37:37;;;;;;;1.40;1.30;;;;;;;8.70;94.75;98155.59;5034120;28;20042;-72
2023/11/11 06:40:08;;;;;;;1.42;1.33;;;;;;;8.64;94.31;98150.59;5033760;28;20045;-72
2023/11/11 06:42:37;;;;;;;0.93;0.82;;;;;;;8.74;95.29;98172.47;5033775;28;20084;-72
2023/11/11 06:45:07;;;;;;;2.40;1.85;;;;;;;8.69;94.17;98164.06;5034056;28;20050;-70
2023/11/11 06:47:36;;;;;;;1.95;1.77;;;;;;;8.55;94.24;98150.75;5033842;28;20392;-71
2023/11/11 06:50:07;;;;;;;0.98;0.90;;;;;;;8.72;94.41;98177.59;5033672;28;20037;-72
2023/11/11 06:52:37;;;;;;;3.75;3.45;;;;;;;8.69;94.27;98172.53;5033565;28;20049;-69
2023/11/11 06:55:10;;;;;;;4.65;4.15;;;;;;;8.77;94.34;98174.97;5033524;28;20129;-72
2023/11/11 06:57:39;;;;;;;1.45;1.35;;;;;;;8.76;94.91;98168.19;5033136;28;20045;-71
2023/11/11 07:00:15;;;;;;;1.55;1.33;;;;;;;8.79;94.39;98180.84;5033460;28;20100;-70
2023/11/11 07:02:47;;;;;;;1.42;1.33;;;;;;;8.74;94.51;98178.38;5032351;28;20041;-70
2023/11/11 07:05:16;;;;;;;1.63;1.52;;;;;;;8.60;94.59;98161.69;5033511;28;20061;-70
2023/11/11 07:07:46;;;;;;;3.13;2.22;;;;;;;8.65;94.52;98178.56;5033387;28;20133;-71
2023/11/11 07:10:17;;;;;;;2.83;1.67;;;;;;;8.69;94.43;98179.31;5033361;28;20045;-72
2023/11/11 07:12:45;;;;;;;2.67;1.88;;;;;;;8.65;94.31;98175.16;5031556;28;20068;-70
2023/11/11 07:15:15;;;;;;;4.10;1.73;;;;;;;8.54;95.19;98154.19;5032415;28;20402;-72
2023/11/11 07:17:44;;;;;;;2.03;1.90;;;;;;;8.65;94.75;98163.31;5033499;28;20037;-71
2023/11/11 07:20:16;;;;;;;1.52;1.35;;;;;;;8.76;95.23;98175.81;5033103;28;20124;-73
2023/11/11 07:22:45;;;;;;;2.17;1.58;;;;;;;8.67;94.57;98160.72;5033539;28;20095;-71
2023/11/11 07:25:14;;;;;;;0.45;0.45;;;;;;;8.72;95.43;98164.03;5033305;28;20045;-72
2023/11/11 07:27:45;;;;;;;0.88;0.82;;;;;;;8.67;95.08;98160.72;5033104;28;20045;-72
2023/11/11 07:30:14;;;;;;;1.77;1.30;;;;;;;8.82;95.20;98180.81;5032962;28;20077;-70
2023/11/11 07:32:44;;;;;;;3.08;2.85;;;;;;;8.86;94.94;98179.88;5033051;28;20042;-73
2023/11/11 07:35:27;;;;;;;1.27;1.17;;;;;;;8.56;94.86;98137.19;5033133;28;20041;-70
2023/11/11 07:37:56;;;;;;;1.10;1.05;;;;;;;8.89;95.12;98169.66;5033364;28;20025;-71
2023/11/11 07:40:25;;;;;;;1.15;1.05;;;;;;;8.94;94.61;98175.50;5033048;28;20041;-71
2023/11/11 07:42:56;;;;;;;;;;;;;;;8.95;94.73;98174.59;5051661;28;20056;-73
2023/11/11 07:45:26;;;;;;;3.95;2.10;;;;;;;8.94;94.75;98159.38;5051869;28;19961;-73
2023/11/11 07:47:55;;;;;;;2.42;2.22;;;;;;;8.99;94.78;98171.16;5042688;28;20041;-73
2023/11/11 07:50:26;;;;;;;1.15;0.98;;;;;;;8.70;94.86;98114.91;5040944;28;20055;-72
2023/11/11 07:52:55;;;;;;;1.10;1.00;;;;;;;8.93;95.29;98138.19;5034944;28;20510;-70
2023/11/11 07:55:24;;;;;;;;;;;;;;;9.18;95.14;98172.47;5044213;28;20125;-72
2023/11/11 07:57:53;;;;;;;2.25;1.98;;;;;;;9.19;94.67;98171.59;5038291;28;19944;-72
2023/11/11 08:00:27;;;;;;;1.30;1.10;;;;;;;9.10;94.99;98161.59;5043118;28;20033;-70
2023/11/11 08:02:55;;;;;;;1.50;1.40;;;;;;;8.84;95.26;98107.84;5049757;28;20048;-70
2023/11/11 08:05:28;;;;;;;0.70;0.70;;;;;;;9.30;94.21;98177.34;5052871;28;20041;-69
2023/11/11 08:07:58;;;;;;;3.25;1.67;;;;;;;9.30;94.81;98184.97;5052850;28;20049;-71
2023/11/11 08:10:44;;;;;;;2.03;1.88;;;;;;;9.31;94.17;98184.09;5055958;28;20052;-71
2023/11/11 08:13:14;;;;;;;5.78;1.77;;;;;;;9.30;94.50;98184.97;5056097;28;20152;-73
2023/11/11 08:15:45;;;;;;;2.53;2.33;;;;;;;9.34;94.41;98186.56;5056019;28;20049;-72
2023/11/11 08:18:14;;;;;;;1.42;1.33;;;;;;;9.37;93.89;98185.69;5055937;28;20048;-71
2023/11/11 08:20:43;;;;;;;2.03;1.73;;;;;;;9.42;94.44;98179.63;5056241;28;20044;-71
2023/11/11 08:23:12;;;;;;;2.25;1.45;;;;;;;9.45;94.16;98182.09;5056210;28;20305;-71
2023/11/11 08:25:41;;;;;;;2.80;1.67;;;;;;;9.33;93.95;98178.97;5056278;28;20062;-71
2023/11/11 08:28:09;;;;;;;1.60;1.50;;;;;;;9.32;93.48;98187.47;5056010;28;20045;-69
2023/11/11 08:30:40;;;;;;;2.15;1.35;;;;;;;9.26;93.51;98183.34;5056180;28;20037;-73
2023/11/11 08:33:11;;;;;;;1.10;1.08;;;;;;;9.28;93.48;98184.16;5055961;28;20488;-70
2023/11/11 08:35:39;;;;;;;0.88;0.82;;;;;;;9.32;93.47;98178.13;5056258;28;20063;-71
2023/11/11 08:38:08;;;;;;;0.80;0.80;;;;;;;9.38;93.17;98172.91;5055901;28;20045;-70
2023/11/11 08:40:37;;;;;;;1.70;1.60;;;;;;;9.11;93.39;98127.66;5056381;28;20453;-69
2023/11/11 08:43:06;;;;;;;0.65;0.65;;;;;;;9.44;93.52;98182.13;5055895;28;20056;-71
2023/11/11 08:45:35;;;;;;;0.30;0.30;;;;;;;9.17;93.58;98134.31;5055769;28;20051;-71
2023/11/11 08:48:04;;;;;;;2.28;1.30;;;;;;;9.51;92.82;98180.28;5055897;28;20071;-72
2023/11/11 08:50:34;;;;;;;0.55;0.55;;;;;;;9.55;92.44;98184.47;5055635;28;20045;-69
2023/11/11 08:53:03;;;;;;;0.60;0.60;;;;;;;9.23;92.33;98140.16;5055626;28;20122;-70
2023/11/11 08:55:32;;;;;;;3.25;2.20;;;;;;;9.53;92.25;98183.66;5054716;28;20159;-72
2023/11/11 08:58:00;;;;;;;5.43;1.70;;;;;;;9.51;92.66;98193.03;5055786;28;20115;-71
2023/11/11 09:00:30;;;;;;;2.23;2.03;;;;;;;9.49;92.41;98182.88;5055519;28;20075;-72
2023/11/11 09:02:59;;;;;;;2.28;2.08;;;;;;;9.51;92.10;98188.78;5055481;28;20049;-72
2023/11/11 09:05:28;;;;;;;5.88;2.78;;;;;;;9.52;92.68;98189.63;5055849;28;20041;-71
2023/11/11 09:07:59;;;;;;;3.25;2.33;;;;;;;9.49;91.98;98194.78;5055398;28;20041;-71
2023/11/11 09:10:29;;;;;;;2.85;1.40;;;;;;;9.42;91.92;98189.81;5055301;28;20049;-72
2023/11/11 09:12:58;;;;;;;1.27;1.17;;;;;;;9.44;92.13;98198.25;5055398;28;20398;-71
2023/11/11 09:15:27;;;;;;;2.08;1.17;;;;;;;9.42;92.48;98189.81;5055187;28;20045;-72
2023/11/11 09:17:57;;;;;;;2.65;2.45;;;;;;;9.24;92.36;98164.72;5055448;28;20045;-71
2023/11/11 09:20:25;;;;;;;1.40;1.20;;;;;;;9.41;91.93;98198.31;5054732;28;20051;-71
2023/11/11 09:22:54;;;;;;;3.40;2.00;;;;;;;9.35;92.23;98193.34;5055099;28;20521;-71
2023/11/11 09:25:24;;;;;;;3.72;2.72;;;;;;;9.36;92.40;98200.09;5055426;28;20041;-71
2023/11/11 09:27:53;;;;;;;3.70;2.53;;;;;;;9.33;92.94;98200.16;5055249;28;20057;-70
2023/11/11 09:30:22;;;;;;;10.02;1.27;;;;;;;9.26;92.74;98193.50;5055175;28;20574;-70
2023/11/11 09:32:53;;;;;;;1.65;1.55;;;;;;;9.26;92.45;98203.69;5053690;28;20536;-71
2023/11/11 09:35:22;;;;;;;1.27;1.17;;;;;;;9.22;92.97;98202.09;5054833;28;20049;-71
2023/11/11 09:37:51;;;;;;;0.70;0.70;;;;;;;9.17;93.24;98188.59;5054813;28;20056;-71
2023/11/11 09:40:20;;;;;;;1.93;1.30;;;;;;;9.29;93.60;98203.66;5055082;28;20033;-70
2023/11/11 09:42:50;;;;;;;1.33;1.25;;;;;;;9.30;93.16;98202.78;5054679;28;20772;-71
2023/11/11 09:45:21;;;;;;;3.65;2.13;;;;;;;9.30;93.56;98200.25;5054735;28;20494;-71
2023/11/11 09:47:54;;;;;;;0.82;0.82;;;;;;;9.19;93.42;98196.22;5054576;28;20060;-70
2023/11/11 09:50:25;;;;;;;2.25;2.05;;;;;;;9.23;93.29;98205.47;5054744;28;20045;-71
2023/11/11 09:52:55;;;;;;;1.42;1.02;;;;;;;9.21;94.16;98195.31;5054250;28;20053;-70
2023/11/11 09:55:24;;;;;;;0.90;0.77;;;;;;;9.19;94.31;98181.78;5054468;28;20079;-70
2023/11/11 09:57:55;;;;;;;2.13;1.83;;;;;;;9.21;94.12;98190.22;5054690;28;20041;-70
2023/11/11 10:00:23;;;;;;;0.93;0.93;;;;;;;9.25;94.35;98191.84;5054639;28;20052;-69
2023/11/11 10:02:52;;;;;;;0.65;0.65;;;;;;;9.20;93.86;98168.19;5054328;28;20049;-69
2023/11/11 10:05:22;;;;;;;1.20;1.05;;;;;;;9.32;94.38;98178.13;5054450;28;20049;-69
2023/11/11 10:07:55;;;;;;;2.72;1.65;;;;;;;9.17;94.81;98160.63;5054438;28;20057;-69
2023/11/11 10:10:25;;;;;;;1.50;1.40;;;;;;;9.19;94.39;98170.78;5054480;28;20055;-69
2023/11/11 10:12:56;;;;;;;1.58;1.48;;;;;;;9.24;94.28;98177.44;5053884;28;20110;-70
2023/11/11 10:15:25;;;;;;;0.73;0.73;;;;;;;9.24;94.81;98177.44;5054720;28;20072;-70
2023/11/11 10:17:54;;;;;;;1.17;1.10;;;;;;;9.30;94.91;98184.97;5053859;28;20049;-69
2023/11/11 10:20:27;;;;;;;1.67;1.58;;;;;;;9.26;94.50;98160.41;5054635;28;20047;-71
2023/11/11 10:22:58;;;;;;;25.30;2.00;;;;;;;9.36;94.92;98163.63;5053929;28;20049;-71
2023/11/11 10:25:26;;;;;;;3.47;1.88;;;;;;;9.36;94.90;98164.47;5054107;28;20045;-71
2023/11/11 10:27:59;;;;;;;2.03;1.83;;;;;;;9.38;95.21;98167.81;5053846;28;20495;-69
2023/11/11 10:30:28;;;;;;;3.28;1.38;;;;;;;9.45;94.68;98164.28;5053757;28;20102;-71
2023/11/11 10:33:01;;;;;;;2.15;1.92;;;;;;;9.53;94.46;98165.81;5053101;28;20041;-70
2023/11/11 10:35:30;;;;;;;1.73;1.63;;;;;;;9.53;94.76;98164.13;5053684;28;20049;-70
2023/11/11 10:38:00;;;;;;;1.70;1.60;;;;;;;9.55;94.77;98164.91;5054319;28;20041;-69
2023/11/11 10:40:28;;;;;;;;;;;;;;;9.64;94.61;98163.91;5054046;28;20051;-70
2023/11/11 10:42:59;;;;;;;0.82;0.82;;;;;;;9.75;94.61;98159.41;5053913;28;19920;-69
2023/11/11 10:45:32;;;;;;;6.00;1.75;;;;;;;9.76;94.38;98158.53;5053655;28;20045;-70
2023/11/11 10:48:02;;;;;;;1.45;1.35;;;;;;;9.80;94.41;98135.50;5053663;28;20051;-69
2023/11/11 10:50:31;;;;;;;1.10;1.02;;;;;;;9.73;94.62;98136.53;5053471;28;20056;-71
2023/11/11 10:53:01;;;;;;;0.57;0.57;;;;;;;9.57;94.54;98102.09;5053307;28;20052;-72
2023/11/11 10:55:32;;;;;;;1.83;1.65;;;;;;;9.85;94.23;98148.13;5053714;28;20456;-69
2023/11/11 10:58:03;;;;;;;1.23;1.17;;;;;;;9.90;94.01;98146.34;5053466;28;20053;-71
2023/11/11 11:00:34;;;;;;;2.45;1.77;;;;;;;9.90;93.84;98156.53;5053975;28;20033;-71
2023/11/11 11:03:05;;;;;;;2.13;1.92;;;;;;;9.93;93.34;98166.66;5053810;28;20056;-72
2023/11/11 11:05:42;;;;;;;3.03;2.72;;;;;;;9.86;93.47;98155.75;5053573;28;20388;-72
2023/11/11 11:08:19;;;;;;;0.85;0.85;;;;;;;9.83;93.36;98150.72;5053339;28;20067;-71
2023/11/11 11:11:02;;;;;;;0.65;0.65;;;;;;;9.84;92.74;98149.84;5053575;28;20103;-71
2023/11/11 11:13:35;;;;;;;2.15;1.95;;;;;;;9.94;92.80;98163.22;5053334;28;20068;-71
2023/11/11 11:16:05;;;;;;;8.30;1.40;;;;;;;9.98;92.98;98154.66;5053341;28;20127;-70
2023/11/11 11:18:34;;;;;;;3.13;2.25;;;;;;;9.97;92.24;98153.81;5053533;28;20541;-70
2023/11/11 11:21:04;;;;;;;0.93;0.90;;;;;;;9.98;92.56;98154.66;5053238;28;20064;-69
2023/11/11 11:23:37;;;;;;;3.55;2.15;;;;;;;10.01;92.32;98149.47;5053463;28;20135;-69
2023/11/11 11:26:06;;;;;;;4.03;1.45;;;;;;;10.04;92.09;98140.03;5053371;28;20380;-72
2023/11/11 11:28:36;;;;;;;2.20;1.50;;;;;;;10.04;91.88;98140.03;5053181;28;20045;-71
2023/11/11 11:31:05;;;;;;;1.85;1.70;;;;;;;10.12;91.69;98142.44;5053067;28;20056;-70
2023/11/11 11:33:35;;;;;;;0.77;0.77;;;;;;;10.09;91.11;98145.88;5053649;28;20045;-72
2023/11/11 11:36:09;;;;;;;1.70;0.98;;;;;;;10.11;90.95;98150.94;5053164;28;20098;-69
2023/11/11 11:38:39;;;;;;;3.25;2.28;;;;;;;10.08;91.05;98130.59;5053065;28;20048;-71
2023/11/11 11:41:10;;;;;;;3.70;3.40;;;;;;;10.18;90.56;98146.53;5053017;28;20055;-70
2023/11/11 11:43:42;;;;;;;1.67;1.58;;;;;;;10.17;90.44;98140.63;5054163;28;20141;-71
2023/11/11 11:46:11;;;;;;;4.28;2.55;;;;;;;10.21;90.67;98139.69;5056898;28;20053;-71
2023/11/11 11:48:42;;;;;;;2.92;2.03;;;;;;;10.20;90.14;98138.00;5056788;28;20041;-70
2023/11/11 11:51:12;;;;;;;1.42;1.00;;;;;;;10.24;90.07;98137.06;5056851;28;20053;-71
2023/11/11 11:53:42;;;;;;;1.85;1.60;;;;;;;10.25;90.15;98136.16;5056875;28;20053;-69
2023/11/11 11:56:14;;;;;;;1.52;1.30;;;;;;;10.26;89.48;98135.31;5056888;28;20041;-71